X  SluitMETAR luchtvaart weer gegevens      EHDL Deelen Air Base

Temperatuur

16°C Temperatuur

14°C Dauwpunt

88% Vochtigheid



Wind

14 KM/U

 9 MPH

 4 M/S

 8 KTS



210°
Zuid Zuid
West
Huidig weer

Wat bewolking Wat bewolking
Luchtdruk 1005.92 (hPa) - 29.7 (in)
Zicht 6.2 (mi) - 10 (km)
Vliegveld
Vliegveld code EHDL

Locatie Deelen Air Base 14 (km)

Metar:
EHDL 151055Z AUTO 21008KT 150V260 9999 FEW009 SCT017 BKN059 16/14 Q1006 WHT

Tijd: 2019-10-15 12:55